USNNUSRR

Guest
Details From USNN - NIZHNEVARTOVSK
To USRR - SURGUT
Flight Number -
Tags generated
Created
Modified
Stats Distance 92 nm / 171 km
Max Altitude 0 ft / 0 m
Waypoints 2
Social Downloads 1
Likes 0
Share VATSIM

Download

Looking for another format? Having issues loading an existing format? Contact us
Advertisement - Login to hide

Notes

Basic altitude profile: - Ascent Rate: 2500ft/min - Ascent Speed: 250kts - Cruise Altitude: 35000ft - Cruise Speed: 420kts - Descent Rate: 1500ft/min - Descent Speed: 250kts Options: - Use NATs: yes - Use PACOTS: yes - Use low airways: yes - Use high airways: yes

Route

USNN USRR

ID Type Via Altitude Latitude Longitude Leg Dist Tot Dist Heading (true) Name
O USNN APT - 0 ft / 0 m 60.94927˚ 76.48362˚ - 0 nm - NIZHNEVARTOVSK
O USRR APT - 0 ft / 0 m 61.34369˚ 73.40184˚ 92 nm 92 nm 286° / 284° SURGUT

Altitude Profile

Advertisement - Login to hide

USNN

Details ICAO USNN (NJC)
Name NIZHNEVARTOVSK
Region Russia
Timezone Asia/Yekaterinburg (UTC+5.0)
Stats Elevation 177 ft / 54 m (AMSL)
Location 60.949272° 76.483618°
Runways 1
Magnetic Variation 15.734° E

METAR

USNN 160700Z 24004MPS CAVOK M08/M10 Q1030 R21/39//39 NOSIG RMK QFE768

Decode

TAF

TAF USNN 160500Z 1606/1706 24006MPS 9999 BKN050 TEMPO 1606/1612 4000 -SHSN SCT017CB BECMG 1615/1616 23003MPS

Decode

Departure Runways

ID Width Length Bearing (true) Bearing (mag) Surface Threshold Offset Overrun Length
03 197 ft / 60 m 10,417 ft / 3,175 m 42.34° 26.61° Asphalt 0 ft / 0 m 245 ft / 75 m
21 197 ft / 60 m 10,417 ft / 3,175 m 222.38° 206.65° Asphalt 0 ft / 0 m 245 ft / 75 m

USRR

Details ICAO USRR (SGC)
Name SURGUT
Region Russia
Timezone Asia/Yekaterinburg (UTC+5.0)
Stats Elevation 200 ft / 61 m (AMSL)
Location 61.343693° 73.401842°
Runways 1
Magnetic Variation 17.101° E

METAR

USRR 160700Z 23005MPS 7000 SCT035 M07/M10 Q1029 R25/390038 NOSIG RMK QFE767

Decode

TAF

TAF TAF USRR 160455Z 1606/1706 24007G14MPS 9999 BKN020 TEMPO 1609/1615 3100 -SHSN SCT011 BKN015CB

Decode

Destination Runways

ID Width Length Bearing (true) Bearing (mag) Surface Threshold Offset Overrun Length
07 148 ft / 45 m 9,112 ft / 2,778 m 89.72° 72.62° Asphalt 0 ft / 0 m 165 ft / 50 m
25 148 ft / 45 m 9,112 ft / 2,778 m 269.76° 252.66° Asphalt 0 ft / 0 m 165 ft / 50 m

Popular Alternatives